Time;durP1;ratioP1;P1;durP2;ratioP2;P2;SDS_P1;SDS_P2;PMS_P1;PMS_P2;Temp;Humidity;BMP_temperature;BMP_pressure;BME280_temperature;BME280_humidity;BME280_pressure;Samples;Min_cycle;Max_cycle;Signal;HPM_P1;HPM_P2
2023/08/07 00:00:36;;;;;;;2.90;1.00;;;12.30;99.90;;;;;;4994804;28;20116;-75
2023/08/07 00:03:02;;;;;;;3.83;1.00;;;12.30;99.90;;;;;;5009383;28;20034;-76
2023/08/07 00:05:28;;;;;;;2.40;0.70;;;12.30;99.90;;;;;;4991667;28;20036;-75
2023/08/07 00:07:54;;;;;;;3.33;0.70;;;12.20;99.90;;;;;;5008532;28;20037;-74
2023/08/07 00:10:19;;;;;;;1.75;0.63;;;12.20;99.90;;;;;;5003301;28;20026;-74
2023/08/07 00:12:45;;;;;;;1.45;0.60;;;12.30;99.90;;;;;;5007895;28;20109;-74
2023/08/07 00:15:11;;;;;;;2.92;0.90;;;12.30;99.90;;;;;;5006515;28;20642;-74
2023/08/07 00:17:37;;;;;;;1.20;0.70;;;12.20;99.90;;;;;;5003498;28;20101;-73
2023/08/07 00:20:04;;;;;;;2.45;0.85;;;12.20;99.90;;;;;;4991932;28;20022;-73
2023/08/07 00:22:29;;;;;;;2.15;0.88;;;12.20;99.90;;;;;;5008042;28;20018;-74
2023/08/07 00:24:58;;;;;;;4.15;0.93;;;12.20;99.90;;;;;;5012229;28;20362;-73
2023/08/07 00:27:23;;;;;;;1.00;0.60;;;12.20;99.90;;;;;;4994113;28;20061;-73
2023/08/07 00:29:49;;;;;;;2.72;0.88;;;12.20;99.90;;;;;;5013299;28;20053;-73
2023/08/07 00:32:15;;;;;;;2.40;0.77;;;12.30;99.90;;;;;;4994566;28;20164;-74
2023/08/07 00:34:40;;;;;;;1.20;0.60;;;12.30;99.90;;;;;;4989997;28;20038;-73
2023/08/07 00:37:06;;;;;;;1.80;0.70;;;12.20;99.90;;;;;;4997030;28;20105;-73
2023/08/07 00:39:31;;;;;;;1.23;0.75;;;12.30;99.90;;;;;;5014435;28;20028;-74
2023/08/07 00:41:57;;;;;;;3.35;0.95;;;12.20;99.90;;;;;;5007944;28;20025;-74
2023/08/07 00:44:23;;;;;;;2.15;1.33;;;12.20;99.90;;;;;;4993823;28;20022;-74
2023/08/07 00:46:49;;;;;;;1.08;0.60;;;12.20;99.90;;;;;;4993198;28;20108;-73
2023/08/07 00:49:16;;;;;;;2.05;0.90;;;12.20;99.90;;;;;;5008998;28;20030;-74
2023/08/07 00:51:41;;;;;;;1.55;0.60;;;12.20;99.90;;;;;;5010893;28;20057;-73
2023/08/07 00:54:11;;;;;;;1.73;0.93;;;12.20;99.90;;;;;;5010914;28;20073;-75
2023/08/07 00:56:37;;;;;;;2.47;0.85;;;12.20;99.90;;;;;;5007987;28;20014;-75
2023/08/07 00:59:03;;;;;;;3.13;1.15;;;12.20;99.90;;;;;;5000220;28;20032;-74
2023/08/07 01:01:29;;;;;;;1.65;0.60;;;12.10;99.90;;;;;;5011840;28;20022;-74
2023/08/07 01:03:55;;;;;;;1.92;0.90;;;12.10;99.90;;;;;;4999719;28;20516;-74
2023/08/07 01:06:20;;;;;;;2.13;1.02;;;12.10;99.90;;;;;;5003355;28;20026;-74
2023/08/07 01:08:47;;;;;;;3.13;0.70;;;12.10;99.90;;;;;;5008373;28;20033;-73
2023/08/07 01:11:30;;;;;;;1.23;0.80;;;12.10;99.90;;;;;;5011090;28;20448;-75
2023/08/07 01:14:21;;;;;;;3.03;0.98;;;12.10;99.90;;;;;;5010653;28;20034;-73
2023/08/07 01:17:01;;;;;;;3.13;1.00;;;12.10;99.90;;;;;;4959982;28;20515;-74
2023/08/07 01:19:28;;;;;;;2.45;0.70;;;12.10;99.90;;;;;;5013162;28;20109;-74
2023/08/07 01:22:06;;;;;;;1.10;0.75;;;12.10;99.90;;;;;;5013474;28;20045;-75
2023/08/07 01:24:33;;;;;;;2.03;0.98;;;12.00;99.90;;;;;;5014121;28;20076;-74
2023/08/07 01:27:08;;;;;;;4.85;1.25;;;12.00;99.90;;;;;;4997335;28;20030;-74
2023/08/07 01:30:06;;;;;;;2.97;1.25;;;12.00;99.90;;;;;;5013693;28;20043;-74
2023/08/07 01:32:38;;;;;;;4.63;0.85;;;12.00;99.90;;;;;;5014266;28;20026;-74
2023/08/07 01:35:06;;;;;;;2.08;1.00;;;11.90;99.90;;;;;;5016306;28;20045;-75
2023/08/07 01:37:36;;;;;;;2.33;0.90;;;11.90;99.90;;;;;;5008239;28;20489;-74
2023/08/07 01:40:03;;;;;;;2.47;0.90;;;11.90;99.90;;;;;;5010859;28;20026;-74
2023/08/07 01:42:29;;;;;;;2.40;0.60;;;11.80;99.90;;;;;;5007770;28;20033;-75
2023/08/07 01:44:55;;;;;;;1.13;0.60;;;11.80;99.90;;;;;;5010133;28;20445;-73
2023/08/07 01:47:20;;;;;;;2.85;0.90;;;11.80;99.90;;;;;;4994400;28;20464;-75
2023/08/07 01:49:46;;;;;;;9.90;1.10;;;11.80;99.90;;;;;;5011085;28;20179;-75
2023/08/07 01:52:12;;;;;;;2.20;0.93;;;11.80;99.90;;;;;;5005375;28;20113;-74
2023/08/07 01:54:38;;;;;;;3.80;1.17;;;11.80;99.90;;;;;;4992613;28;20026;-75
2023/08/07 01:57:04;;;;;;;3.67;1.20;;;11.70;99.90;;;;;;4988830;28;20088;-73
2023/08/07 01:59:29;;;;;;;4.47;1.17;;;11.70;99.90;;;;;;4990350;28;20041;-73
2023/08/07 02:01:55;;;;;;;1.40;0.90;;;11.70;99.90;;;;;;4994350;28;20026;-74
2023/08/07 02:04:20;;;;;;;3.05;0.95;;;11.70;99.90;;;;;;5007779;28;20104;-74
2023/08/07 02:06:46;;;;;;;2.15;0.60;;;11.70;99.90;;;;;;5008477;28;20042;-73
2023/08/07 02:09:12;;;;;;;1.67;0.88;;;11.70;99.90;;;;;;4993310;28;20036;-74
2023/08/07 02:11:37;;;;;;;1.63;0.85;;;11.70;99.90;;;;;;5015422;28;20041;-75
2023/08/07 02:14:03;;;;;;;2.97;1.08;;;11.60;99.90;;;;;;5012848;28;20033;-75
2023/08/07 02:16:28;;;;;;;2.75;1.10;;;11.60;99.90;;;;;;5014017;28;20045;-74
2023/08/07 02:18:54;;;;;;;3.03;0.90;;;11.60;99.90;;;;;;4998242;28;20068;-75
2023/08/07 02:21:19;;;;;;;3.50;1.00;;;11.60;99.90;;;;;;5015631;28;20026;-74
2023/08/07 02:23:45;;;;;;;3.30;0.90;;;11.70;99.90;;;;;;5014912;28;20022;-74
2023/08/07 02:26:11;;;;;;;2.05;0.90;;;11.70;99.90;;;;;;5020281;28;20041;-74
2023/08/07 02:28:36;;;;;;;2.45;1.05;;;11.70;99.90;;;;;;5009902;28;20018;-73
2023/08/07 02:31:02;;;;;;;2.22;0.75;;;11.70;99.90;;;;;;5034940;28;20461;-73
2023/08/07 02:33:30;;;;;;;1.70;0.93;;;11.70;99.90;;;;;;5026384;28;20041;-73
2023/08/07 02:35:56;;;;;;;3.35;1.08;;;11.70;99.90;;;;;;4997393;28;20109;-73
2023/08/07 02:38:21;;;;;;;3.85;1.20;;;11.70;99.90;;;;;;4997235;28;20076;-75
2023/08/07 02:40:47;;;;;;;5.15;1.27;;;11.70;99.90;;;;;;4996556;28;20079;-74
2023/08/07 02:43:13;;;;;;;5.72;0.85;;;11.70;99.90;;;;;;5011992;28;20040;-74
2023/08/07 02:45:38;;;;;;;2.97;1.45;;;11.70;99.90;;;;;;5014152;28;20033;-75
2023/08/07 02:48:04;;;;;;;2.90;0.82;;;11.70;99.90;;;;;;5011990;28;20026;-74
2023/08/07 02:50:32;;;;;;;1.60;0.90;;;11.70;99.90;;;;;;4995563;28;20118;-75
2023/08/07 02:52:58;;;;;;;2.55;1.17;;;11.70;99.90;;;;;;4991827;28;20037;-76
2023/08/07 02:55:24;;;;;;;3.25;0.90;;;11.80;99.90;;;;;;5014685;28;20504;-75
2023/08/07 02:57:49;;;;;;;3.38;1.00;;;11.70;99.90;;;;;;4991890;28;20029;-75
2023/08/07 03:00:15;;;;;;;5.05;1.02;;;11.70;99.90;;;;;;5015611;28;20093;-76
2023/08/07 03:02:41;;;;;;;2.13;1.27;;;11.70;99.90;;;;;;5013151;28;20522;-74
2023/08/07 03:05:07;;;;;;;2.08;0.98;;;11.70;99.90;;;;;;5017939;28;20021;-77
2023/08/07 03:07:32;;;;;;;3.92;1.23;;;11.70;99.90;;;;;;5013860;28;20034;-76
2023/08/07 03:09:58;;;;;;;1.50;0.82;;;11.70;99.90;;;;;;5014045;28;20026;-76
2023/08/07 03:12:24;;;;;;;1.98;0.90;;;11.70;99.90;;;;;;5013874;28;20519;-76
2023/08/07 03:14:50;;;;;;;1.73;1.00;;;11.70;99.90;;;;;;5013436;28;20038;-75
2023/08/07 03:17:15;;;;;;;2.63;1.00;;;11.70;99.90;;;;;;5012381;28;20454;-76
2023/08/07 03:19:43;;;;;;;3.33;0.90;;;11.80;99.90;;;;;;4995278;28;20064;-76
2023/08/07 03:22:09;;;;;;;2.15;0.88;;;11.70;99.90;;;;;;4996422;28;20025;-75
2023/08/07 03:24:35;;;;;;;2.47;0.80;;;11.70;99.90;;;;;;5012838;28;20030;-76
2023/08/07 03:27:00;;;;;;;2.00;1.00;;;11.80;99.90;;;;;;4999821;28;20029;-75
2023/08/07 03:29:26;;;;;;;2.65;1.20;;;11.80;99.90;;;;;;5019209;28;20029;-76
2023/08/07 03:31:52;;;;;;;2.25;0.82;;;11.80;99.90;;;;;;4995670;28;20037;-76
2023/08/07 03:34:17;;;;;;;3.70;1.30;;;11.80;99.90;;;;;;5014799;28;20484;-77
2023/08/07 03:36:43;;;;;;;2.60;0.93;;;11.70;99.90;;;;;;5015562;28;20100;-77
2023/08/07 03:39:10;;;;;;;2.40;1.20;;;11.70;99.90;;;;;;5014162;28;20439;-77
2023/08/07 03:41:35;;;;;;;2.05;1.00;;;11.70;99.90;;;;;;4996366;28;20566;-76
2023/08/07 03:44:01;;;;;;;3.80;1.13;;;11.60;99.90;;;;;;4995109;28;20041;-76
2023/08/07 03:46:27;;;;;;;3.03;1.15;;;11.60;99.90;;;;;;5013275;28;20034;-76
2023/08/07 03:48:52;;;;;;;1.83;0.95;;;11.60;99.90;;;;;;5014031;28;20515;-76
2023/08/07 03:51:18;;;;;;;3.22;1.42;;;11.60;99.90;;;;;;4997650;28;20065;-76
2023/08/07 03:53:44;;;;;;;3.15;1.40;;;11.60;99.90;;;;;;5012427;28;20033;-76
2023/08/07 03:56:09;;;;;;;4.00;1.20;;;11.60;99.90;;;;;;5009257;28;20014;-76
2023/08/07 03:58:35;;;;;;;2.78;1.13;;;11.50;99.90;;;;;;5011053;28;20021;-75
2023/08/07 04:01:00;;;;;;;3.97;1.40;;;11.50;99.90;;;;;;5009708;28;20105;-75
2023/08/07 04:03:26;;;;;;;3.67;1.02;;;11.50;99.90;;;;;;5006287;28;20054;-76
2023/08/07 04:05:53;;;;;;;2.55;1.50;;;11.50;99.90;;;;;;5012115;28;20101;-75
2023/08/07 04:08:19;;;;;;;9.50;1.98;;;11.50;99.90;;;;;;4995186;28;20539;-76
2023/08/07 04:10:45;;;;;;;2.30;1.00;;;11.50;99.90;;;;;;5015966;28;20033;-76
2023/08/07 04:13:11;;;;;;;2.85;0.90;;;11.50;99.90;;;;;;4988143;28;20038;-76
2023/08/07 04:15:36;;;;;;;2.75;1.08;;;11.50;99.90;;;;;;5011854;28;20017;-76
2023/08/07 04:18:02;;;;;;;5.00;1.45;;;11.50;99.90;;;;;;5009583;28;20853;-76
2023/08/07 04:20:27;;;;;;;1.92;0.93;;;11.50;99.90;;;;;;5007899;28;20382;-77
2023/08/07 04:22:53;;;;;;;3.35;1.88;;;11.50;99.90;;;;;;5009556;28;20136;-76
2023/08/07 04:25:19;;;;;;;3.75;2.10;;;11.50;99.90;;;;;;5011245;28;20037;-75
2023/08/07 04:27:44;;;;;;;2.92;1.42;;;11.60;99.90;;;;;;5013820;28;20018;-74
2023/08/07 04:30:11;;;;;;;5.15;1.25;;;11.60;99.90;;;;;;4984526;28;20045;-76
2023/08/07 04:32:36;;;;;;;3.08;1.15;;;11.60;99.90;;;;;;5009462;28;20022;-74
2023/08/07 04:35:02;;;;;;;3.65;1.38;;;11.60;99.90;;;;;;4999606;28;20539;-76
2023/08/07 04:37:30;;;;;;;3.50;1.40;;;11.60;99.90;;;;;;5011783;28;20025;-75
2023/08/07 04:39:55;;;;;;;3.08;1.27;;;11.60;99.90;;;;;;5011317;28;20026;-77
2023/08/07 04:42:21;;;;;;;3.35;1.40;;;11.60;99.90;;;;;;5016754;28;20030;-75
2023/08/07 04:44:47;;;;;;;2.25;1.20;;;11.60;99.90;;;;;;5012223;28;20439;-75
2023/08/07 04:47:12;;;;;;;4.18;1.35;;;11.60;99.90;;;;;;4993984;28;20528;-76
2023/08/07 04:49:38;;;;;;;2.45;1.30;;;11.60;99.90;;;;;;5012023;28;20034;-75
2023/08/07 04:52:05;;;;;;;1.90;0.93;;;11.60;99.90;;;;;;5005475;28;20057;-75
2023/08/07 04:54:30;;;;;;;2.65;1.55;;;11.60;99.90;;;;;;5009822;28;20136;-76
2023/08/07 04:56:56;;;;;;;13.98;1.63;;;11.60;99.90;;;;;;5014894;28;20029;-76
2023/08/07 04:59:22;;;;;;;3.28;1.15;;;11.50;99.90;;;;;;5014644;28;20026;-75
2023/08/07 05:01:47;;;;;;;2.90;1.00;;;11.50;99.90;;;;;;5013147;28;20034;-75
2023/08/07 05:04:13;;;;;;;2.65;1.38;;;11.60;99.90;;;;;;5013578;28;20033;-75
2023/08/07 05:06:38;;;;;;;4.15;1.63;;;11.50;99.90;;;;;;4996233;28;20030;-77
2023/08/07 05:09:04;;;;;;;2.72;1.10;;;11.50;99.90;;;;;;5005132;28;20191;-73
2023/08/07 05:11:30;;;;;;;3.17;1.25;;;11.50;99.90;;;;;;4998079;28;20080;-70
2023/08/07 05:13:55;;;;;;;2.30;0.90;;;11.60;99.90;;;;;;5008540;28;20427;-71
2023/08/07 05:16:21;;;;;;;3.30;1.63;;;11.70;99.90;;;;;;5005576;28;20026;-72
2023/08/07 05:18:47;;;;;;;3.75;1.10;;;11.90;99.90;;;;;;5007160;28;20026;-72
2023/08/07 05:21:12;;;;;;;5.28;1.73;;;12.00;99.90;;;;;;5004454;28;20488;-71
2023/08/07 05:23:38;;;;;;;4.78;1.10;;;12.20;99.90;;;;;;5011404;28;20037;-74
2023/08/07 05:26:04;;;;;;;2.65;1.10;;;12.20;99.90;;;;;;5011296;28;20520;-74
2023/08/07 05:28:29;;;;;;;3.80;1.20;;;12.30;99.90;;;;;;5015201;28;20040;-74
2023/08/07 05:30:55;;;;;;;3.85;1.00;;;12.20;99.90;;;;;;5004087;28;20031;-75
2023/08/07 05:33:20;;;;;;;2.88;1.02;;;12.20;99.90;;;;;;5012747;28;20547;-74
2023/08/07 05:35:46;;;;;;;4.72;1.35;;;12.20;99.90;;;;;;5011629;28;20036;-76
2023/08/07 05:38:11;;;;;;;6.35;1.38;;;12.20;99.90;;;;;;5006056;28;20040;-74
2023/08/07 05:40:37;;;;;;;2.95;1.52;;;12.20;99.90;;;;;;5009089;28;20071;-75
2023/08/07 05:43:03;;;;;;;3.03;1.40;;;12.20;99.90;;;;;;5012596;28;20018;-74
2023/08/07 05:45:28;;;;;;;4.70;1.38;;;12.20;99.90;;;;;;5017166;28;20073;-75
2023/08/07 05:47:54;;;;;;;2.88;1.05;;;12.20;99.90;;;;;;4995294;28;20508;-76
2023/08/07 05:50:20;;;;;;;3.55;1.55;;;12.20;99.90;;;;;;5008132;28;20036;-73
2023/08/07 05:52:45;;;;;;;4.50;1.50;;;12.20;99.90;;;;;;5013543;28;20441;-75
2023/08/07 05:55:11;;;;;;;2.80;1.40;;;12.20;99.90;;;;;;5013235;28;20018;-75
2023/08/07 05:57:37;;;;;;;3.67;1.42;;;12.20;99.90;;;;;;4990456;28;20123;-74
2023/08/07 06:00:03;;;;;;;2.47;1.30;;;12.30;99.90;;;;;;5006844;28;20041;-74
2023/08/07 06:02:28;;;;;;;3.13;1.08;;;12.30;99.90;;;;;;5004830;28;20487;-74
2023/08/07 06:04:54;;;;;;;1.90;1.17;;;12.30;99.90;;;;;;5004056;28;20026;-74
2023/08/07 06:07:20;;;;;;;1.90;1.05;;;12.30;99.90;;;;;;5003719;28;20037;-75
2023/08/07 06:09:45;;;;;;;3.75;1.38;;;12.40;99.90;;;;;;4987990;28;20033;-74
2023/08/07 06:12:11;;;;;;;3.53;1.05;;;12.40;99.90;;;;;;4988198;28;20037;-75
2023/08/07 06:14:38;;;;;;;3.08;1.00;;;12.40;99.90;;;;;;4983642;28;20038;-75
2023/08/07 06:17:04;;;;;;;5.57;1.23;;;12.40;99.90;;;;;;5005870;28;20027;-74
2023/08/07 06:19:29;;;;;;;2.38;1.00;;;12.50;99.90;;;;;;4992606;28;20501;-75
2023/08/07 06:21:55;;;;;;;2.35;1.50;;;12.50;99.90;;;;;;5005324;28;20057;-76
2023/08/07 06:24:21;;;;;;;3.47;1.45;;;12.50;99.90;;;;;;5007969;28;20389;-75
2023/08/07 06:26:47;;;;;;;5.68;2.00;;;12.50;99.90;;;;;;5006661;28;20026;-74
2023/08/07 06:29:12;;;;;;;1.83;1.17;;;12.50;99.90;;;;;;5006081;28;20026;-75
2023/08/07 06:31:38;;;;;;;4.85;1.25;;;12.60;99.90;;;;;;4990386;28;20029;-73
2023/08/07 06:34:04;;;;;;;2.70;1.17;;;12.60;99.90;;;;;;4988229;28;20029;-75
2023/08/07 06:36:29;;;;;;;4.72;1.60;;;12.60;99.90;;;;;;5004689;28;20476;-74
2023/08/07 06:38:55;;;;;;;5.25;1.38;;;12.70;99.90;;;;;;5008900;28;20021;-75
2023/08/07 06:41:20;;;;;;;2.53;1.60;;;12.70;99.90;;;;;;5005993;28;20049;-75
2023/08/07 06:43:46;;;;;;;3.45;1.35;;;12.80;99.90;;;;;;5005306;28;20489;-75
2023/08/07 06:46:12;;;;;;;6.68;1.10;;;12.80;99.90;;;;;;4989060;28;20064;-73
2023/08/07 06:48:37;;;;;;;3.53;1.20;;;12.80;99.90;;;;;;5004146;28;20030;-73
2023/08/07 06:51:03;;;;;;;2.50;1.30;;;12.90;99.90;;;;;;5001171;28;20431;-74
2023/08/07 06:53:28;;;;;;;4.38;1.30;;;12.90;99.90;;;;;;5001445;28;20025;-74
2023/08/07 06:55:54;;;;;;;1.67;1.15;;;13.00;99.90;;;;;;5001758;28;20440;-75
2023/08/07 06:58:20;;;;;;;5.38;1.50;;;13.00;99.90;;;;;;5004637;28;20060;-75
2023/08/07 07:00:45;;;;;;;2.45;1.33;;;13.00;99.90;;;;;;5005834;28;20026;-75
2023/08/07 07:03:11;;;;;;;5.47;1.63;;;13.10;99.90;;;;;;5002829;28;20018;-73
2023/08/07 07:05:37;;;;;;;4.05;1.48;;;13.10;99.90;;;;;;5002404;28;20034;-74
2023/08/07 07:08:03;;;;;;;3.10;1.33;;;13.30;99.90;;;;;;4988577;28;20026;-74
2023/08/07 07:10:29;;;;;;;3.92;1.52;;;13.30;99.90;;;;;;4986004;28;20030;-74
2023/08/07 07:12:55;;;;;;;3.05;1.20;;;13.30;99.90;;;;;;5004542;28;20128;-75
2023/08/07 07:15:20;;;;;;;5.00;1.48;;;13.40;99.90;;;;;;5005132;28;20054;-73
2023/08/07 07:17:46;;;;;;;4.43;1.20;;;13.50;99.90;;;;;;4986949;28;20425;-74
2023/08/07 07:20:12;;;;;;;3.60;1.40;;;13.50;99.90;;;;;;5006248;28;20032;-74
2023/08/07 07:22:38;;;;;;;3.97;1.23;;;13.60;99.90;;;;;;5005961;28;20030;-73
2023/08/07 07:25:04;;;;;;;3.65;1.30;;;13.60;99.90;;;;;;4985692;28;20044;-74
2023/08/07 07:27:29;;;;;;;2.75;1.20;;;13.70;99.90;;;;;;5004359;28;20038;-75
2023/08/07 07:29:55;;;;;;;2.55;0.90;;;13.80;99.90;;;;;;5003067;28;20045;-74
2023/08/07 07:32:21;;;;;;;2.03;1.08;;;13.90;99.90;;;;;;5005763;28;20057;-73
2023/08/07 07:34:47;;;;;;;1.75;0.90;;;14.10;99.90;;;;;;5001483;28;20528;-75
2023/08/07 07:37:14;;;;;;;6.18;1.15;;;14.10;99.90;;;;;;5002178;28;20038;-74
2023/08/07 07:39:39;;;;;;;1.90;1.10;;;14.20;99.90;;;;;;4989108;28;20153;-74
2023/08/07 07:42:07;;;;;;;2.25;1.10;;;14.20;99.90;;;;;;5008643;28;20021;-75
2023/08/07 07:44:33;;;;;;;4.63;1.63;;;14.20;99.90;;;;;;5007589;28;20029;-74
2023/08/07 07:46:59;;;;;;;3.55;1.20;;;14.30;99.90;;;;;;5005518;28;20022;-74
2023/08/07 07:49:25;;;;;;;2.50;1.40;;;14.30;99.90;;;;;;5006823;28;20450;-75
2023/08/07 07:51:50;;;;;;;2.00;1.30;;;14.40;99.90;;;;;;4989217;28;20034;-74
2023/08/07 07:54:16;;;;;;;3.58;1.40;;;14.40;99.90;;;;;;4987778;28;20030;-75
2023/08/07 07:56:44;;;;;;;3.33;0.98;;;14.50;99.90;;;;;;5008358;28;20076;-75
2023/08/07 07:59:11;;;;;;;4.32;1.10;;;14.60;99.90;;;;;;4990199;28;20057;-75
2023/08/07 08:01:37;;;;;;;3.58;1.35;;;14.60;99.90;;;;;;4999845;28;20473;-75
2023/08/07 08:04:03;;;;;;;3.70;1.20;;;14.60;99.90;;;;;;5003383;28;20037;-75
2023/08/07 08:06:30;;;;;;;3.13;1.25;;;14.60;99.90;;;;;;5005172;28;20480;-75
2023/08/07 08:08:56;;;;;;;2.85;1.15;;;14.70;99.90;;;;;;5004281;28;20025;-75
2023/08/07 08:11:22;;;;;;;5.03;0.93;;;14.80;99.90;;;;;;4984775;28;20033;-74
2023/08/07 08:13:47;;;;;;;2.42;1.40;;;14.80;99.90;;;;;;4988288;28;20032;-75
2023/08/07 08:16:13;;;;;;;3.13;1.00;;;14.90;99.90;;;;;;4988400;28;20022;-75
2023/08/07 08:18:38;;;;;;;3.22;0.95;;;15.00;99.90;;;;;;5005865;28;20045;-75
2023/08/07 08:21:04;;;;;;;2.45;1.00;;;15.10;99.90;;;;;;4998503;28;20428;-75
2023/08/07 08:23:30;;;;;;;3.83;1.00;;;15.20;99.90;;;;;;5004169;28;20034;-75
2023/08/07 08:25:55;;;;;;;3.13;1.08;;;15.30;99.90;;;;;;4987960;28;20026;-75
2023/08/07 08:28:21;;;;;;;2.72;1.13;;;15.30;99.90;;;;;;5005484;28;20026;-76
2023/08/07 08:30:48;;;;;;;2.95;1.30;;;15.40;99.90;;;;;;5000111;28;20104;-75
2023/08/07 08:33:14;;;;;;;4.55;1.17;;;15.40;99.90;;;;;;5006290;28;20467;-74
2023/08/07 08:35:40;;;;;;;2.53;1.23;;;15.60;99.90;;;;;;5002013;28;20053;-76
2023/08/07 08:38:06;;;;;;;3.38;1.20;;;15.70;99.90;;;;;;4986420;28;20472;-74
2023/08/07 08:40:32;;;;;;;2.13;1.15;;;15.80;99.90;;;;;;5002107;28;20049;-75
2023/08/07 08:43:00;;;;;;;3.22;1.30;;;15.90;99.90;;;;;;5004099;28;20086;-74
2023/08/07 08:45:27;;;;;;;1.63;0.90;;;16.00;99.90;;;;;;5002509;28;20449;-73
2023/08/07 08:48:00;;;;;;;3.25;1.40;;;16.00;99.90;;;;;;5003700;28;20048;-74
2023/08/07 08:50:28;;;;;;;4.25;1.02;;;16.10;99.90;;;;;;5017377;23;20120;-85
2023/08/07 08:52:56;;;;;;;1.92;0.90;;;16.30;99.90;;;;;;5018815;28;20066;-86
2023/08/07 08:55:26;;;;;;;2.17;1.05;;;16.30;99.90;;;;;;5004787;28;20036;-86
2023/08/07 08:57:55;;;;;;;1.70;0.80;;;16.40;99.90;;;;;;5024553;28;20504;-85
2023/08/07 09:00:23;;;;;;;2.75;0.90;;;16.50;99.90;;;;;;4992438;28;20026;-87
2023/08/07 09:02:51;;;;;;;4.78;1.30;;;16.50;99.90;;;;;;5004350;28;20641;-86
2023/08/07 09:05:22;;;;;;;1.65;1.08;;;16.60;99.90;;;;;;5003440;28;20125;-86
2023/08/07 09:07:51;;;;;;;3.22;0.90;;;16.70;99.90;;;;;;5003365;28;20511;-86
2023/08/07 09:10:22;;;;;;;1.50;0.60;;;16.70;99.90;;;;;;5003639;28;20030;-86
2023/08/07 09:12:54;;;;;;;4.75;0.98;;;16.70;99.90;;;;;;5003423;28;20087;-85
2023/08/07 09:15:23;;;;;;;1.77;0.90;;;16.70;99.90;;;;;;5004919;28;20018;-86
2023/08/07 09:17:54;;;;;;;3.10;1.00;;;16.70;99.90;;;;;;5003659;28;20030;-87
2023/08/07 09:20:23;;;;;;;2.35;0.90;;;16.80;99.90;;;;;;5000009;28;20416;-85
2023/08/07 09:22:52;;;;;;;2.63;1.00;;;16.80;99.90;;;;;;5016552;28;20034;-87
2023/08/07 09:25:39;;;;;;;5.18;0.93;;;16.80;99.90;;;;;;5018979;28;20022;-87
2023/08/07 09:28:06;;;;;;;1.85;0.90;;;16.90;99.90;;;;;;5003517;28;20033;-86
2023/08/07 09:30:37;;;;;;;1.58;0.85;;;17.00;99.90;;;;;;5000647;28;20037;-87
2023/08/07 09:33:04;;;;;;;3.58;1.15;;;17.00;99.90;;;;;;5001208;28;20091;-86
2023/08/07 09:35:34;;;;;;;2.80;0.90;;;17.10;99.90;;;;;;4992641;28;20548;-86
2023/08/07 09:38:18;;;;;;;3.05;1.10;;;17.10;99.90;;;;;;5002424;28;20457;-86
2023/08/07 09:40:44;;;;;;;;;;;17.10;99.20;;;;;;5003390;28;20034;-89
2023/08/07 09:43:20;;;;;;;1.33;0.98;;;17.20;97.90;;;;;;5019753;28;19916;-86
2023/08/07 09:45:45;;;;;;;1.05;0.80;;;17.20;97.80;;;;;;5018097;28;20032;-86
2023/08/07 09:48:37;;;;;;;2.00;0.80;;;17.30;97.90;;;;;;5000519;28;20050;-86
2023/08/07 09:51:07;;;;;;;1.05;0.68;;;17.40;97.20;;;;;;4985112;28;20041;-91
2023/08/07 09:53:43;;;;;;;2.67;0.98;;;17.40;97.20;;;;;;4993933;28;20036;-88
2023/08/07 09:56:13;;;;;;;2.42;0.90;;;17.40;96.50;;;;;;5002253;28;20029;-88
2023/08/07 09:58:46;;;;;;;2.70;1.00;;;17.50;96.50;;;;;;4999027;28;20181;-86
2023/08/07 10:02:22;;;;;;;1.13;0.77;;;17.60;96.00;;;;;;4999814;28;20026;-86
2023/08/07 10:04:57;;;;;;;1.67;0.80;;;17.80;94.90;;;;;;4940940;29;20152;-86
2023/08/07 10:11:17;;;;;;;1.75;0.90;;;17.90;94.60;;;;;;4939616;29;20079;-87
2023/08/07 10:18:45;;;;;;;;;;;;;;;;;;;;;
2023/08/07 10:24:16;;;;;;;1.17;0.90;;;17.80;95.00;;;;;;5019275;22;20084;-75
2023/08/07 10:26:44;;;;;;;2.42;0.80;;;17.90;94.70;;;;;;5040910;28;20022;-76
2023/08/07 10:29:14;;;;;;;4.68;1.13;;;17.90;95.00;;;;;;5044226;28;20048;-74
2023/08/07 10:31:42;;;;;;;1.50;0.98;;;18.10;94.90;;;;;;5039860;28;20028;-75
2023/08/07 10:34:08;;;;;;;2.08;0.85;;;18.10;93.90;;;;;;5034560;28;20025;-74
2023/08/07 10:36:35;;;;;;;2.70;0.70;;;18.00;93.50;;;;;;5042552;28;20025;-75
2023/08/07 10:39:12;;;;;;;2.20;0.90;;;18.10;92.60;;;;;;5033519;28;21705;-74
2023/08/07 10:41:44;;;;;;;2.28;0.90;;;18.20;92.90;;;;;;5039534;28;20032;-74
2023/08/07 10:44:23;;;;;;;2.08;0.90;;;18.40;93.00;;;;;;5032750;28;20030;-74
2023/08/07 10:46:57;;;;;;;2.03;1.00;;;18.40;92.50;;;;;;5034578;28;20064;-74
2023/08/07 10:49:36;;;;;;;;;;;18.40;92.70;;;;;;5031079;28;20029;-72
2023/08/07 10:52:07;;;;;;;2.92;1.00;;;18.40;92.90;;;;;;5035700;28;19963;-73
2023/08/07 10:54:47;;;;;;;2.72;1.15;;;18.60;92.40;;;;;;5034509;28;20041;-73
2023/08/07 10:57:14;;;;;;;2.53;0.68;;;18.60;91.40;;;;;;5036125;28;20029;-72
2023/08/07 10:59:49;;;;;;;1.38;0.68;;;18.60;91.20;;;;;;5035065;28;20421;-73
2023/08/07 11:02:26;;;;;;;3.70;0.80;;;18.50;91.40;;;;;;5031049;28;20056;-73
2023/08/07 11:04:53;;;;;;;2.67;0.80;;;18.40;91.10;;;;;;5033088;28;20025;-74
2023/08/07 11:07:27;;;;;;;1.77;0.90;;;18.40;91.20;;;;;;5035593;28;20056;-74
2023/08/07 11:09:53;;;;;;;2.55;0.90;;;18.40;90.70;;;;;;5033211;28;20033;-73
2023/08/07 11:12:20;;;;;;;2.13;0.93;;;18.40;90.70;;;;;;5030643;28;20107;-73
2023/08/07 11:14:46;;;;;;;1.50;0.85;;;18.50;91.00;;;;;;5036066;28;20038;-73
2023/08/07 11:17:12;;;;;;;3.00;1.10;;;18.50;90.60;;;;;;5029655;28;20036;-72
2023/08/07 11:19:38;;;;;;;2.17;0.95;;;18.50;90.60;;;;;;5041119;28;20045;-73
2023/08/07 11:22:04;;;;;;;3.83;0.90;;;18.60;91.10;;;;;;5032167;28;20549;-72
2023/08/07 11:24:31;;;;;;;2.20;0.70;;;18.70;90.90;;;;;;5035814;28;20045;-71
2023/08/07 11:26:57;;;;;;;1.38;0.80;;;18.90;91.00;;;;;;5036539;28;20033;-71
2023/08/07 11:29:24;;;;;;;1.45;0.93;;;18.90;90.30;;;;;;5031897;28;20036;-73
2023/08/07 11:31:51;;;;;;;2.47;1.05;;;19.00;90.30;;;;;;5038024;28;20032;-73
2023/08/07 11:34:20;;;;;;;1.65;0.88;;;19.10;90.10;;;;;;5034151;28;20017;-73
2023/08/07 11:36:46;;;;;;;1.70;0.73;;;19.00;88.50;;;;;;5035013;28;20549;-73
2023/08/07 11:39:14;;;;;;;2.30;1.00;;;19.00;89.10;;;;;;5037053;28;20017;-72
2023/08/07 11:41:40;;;;;;;1.35;0.80;;;19.00;89.70;;;;;;5032861;28;20548;-72
2023/08/07 11:44:08;;;;;;;2.40;0.90;;;18.80;88.30;;;;;;5030990;28;20036;-72
2023/08/07 11:46:33;;;;;;;4.10;1.20;;;18.60;89.30;;;;;;5033798;28;20116;-73
2023/08/07 11:48:59;;;;;;;2.03;0.85;;;18.40;89.40;;;;;;5035180;28;20116;-73
2023/08/07 11:51:25;;;;;;;2.92;0.90;;;18.20;89.60;;;;;;5039415;28;20112;-73
2023/08/07 11:53:56;;;;;;;2.95;1.00;;;18.00;90.40;;;;;;5044002;28;20040;-73
2023/08/07 11:56:38;;;;;;;3.35;1.30;;;17.90;90.80;;;;;;5034286;28;20476;-75
2023/08/07 11:59:03;;;;;;;4.15;1.05;;;17.90;91.20;;;;;;5021924;28;20036;-75
2023/08/07 12:01:29;;;;;;;3.35;0.95;;;17.80;91.40;;;;;;5034581;28;20491;-74
2023/08/07 12:03:56;;;;;;;2.13;1.08;;;17.80;91.30;;;;;;5034396;28;20372;-75
2023/08/07 12:06:26;;;;;;;2.83;0.90;;;17.80;91.30;;;;;;5032502;28;20527;-74
2023/08/07 12:08:55;;;;;;;1.23;0.70;;;17.80;91.40;;;;;;5032821;28;20029;-74
2023/08/07 12:11:23;;;;;;;4.22;0.90;;;17.90;91.70;;;;;;5032123;28;20075;-75
2023/08/07 12:13:49;;;;;;;1.10;0.70;;;18.00;92.00;;;;;;5032160;28;20029;-75
2023/08/07 12:16:16;;;;;;;2.15;1.23;;;18.00;91.80;;;;;;5029267;28;20099;-74
2023/08/07 12:18:46;;;;;;;2.47;0.95;;;18.00;91.70;;;;;;5032869;28;21523;-75
2023/08/07 12:21:14;;;;;;;2.03;1.10;;;17.90;91.50;;;;;;5027111;28;20028;-74
2023/08/07 12:23:40;;;;;;;2.28;1.00;;;17.90;91.50;;;;;;5030659;28;20037;-75
2023/08/07 12:26:06;;;;;;;4.70;1.10;;;17.80;91.50;;;;;;5031167;28;20075;-75
2023/08/07 12:28:34;;;;;;;1.58;0.73;;;17.70;91.60;;;;;;5028930;28;20701;-75
2023/08/07 12:31:00;;;;;;;2.25;0.98;;;17.60;91.30;;;;;;5033122;28;20407;-75
2023/08/07 12:33:25;;;;;;;1.65;0.90;;;17.50;91.60;;;;;;5026949;28;20168;-76
2023/08/07 12:35:53;;;;;;;4.25;1.20;;;17.30;91.50;;;;;;5030494;28;20025;-74
2023/08/07 12:38:19;;;;;;;2.97;1.17;;;17.20;91.80;;;;;;5030938;28;20029;-73
2023/08/07 12:40:45;;;;;;;2.28;1.10;;;17.10;92.10;;;;;;5030163;28;20079;-74
2023/08/07 12:43:11;;;;;;;1.40;1.00;;;17.00;92.80;;;;;;5028298;28;20523;-75
2023/08/07 12:45:37;;;;;;;3.60;0.93;;;17.00;92.60;;;;;;5031311;28;20033;-73
2023/08/07 12:48:03;;;;;;;2.13;1.00;;;17.00;92.70;;;;;;5031290;28;20031;-74
2023/08/07 12:50:29;;;;;;;1.90;1.08;;;17.00;93.10;;;;;;5030071;28;20356;-75
2023/08/07 12:52:54;;;;;;;1.52;0.90;;;17.00;92.90;;;;;;5031855;28;20040;-75
2023/08/07 12:55:20;;;;;;;2.97;1.08;;;17.10;93.20;;;;;;5034358;28;20537;-75
2023/08/07 12:57:46;;;;;;;4.32;1.15;;;17.10;93.30;;;;;;5035037;28;20068;-75
2023/08/07 13:00:14;;;;;;;2.30;1.00;;;17.20;93.20;;;;;;5029335;28;20017;-75